sensor_id;sensor_type;location;lat;lon;timestamp;P1;durP1;ratioP1;P2;durP2;ratioP2
4432;SDS011;2229;48.708;9.706;2024-03-02T00:01:37;15.83;;;6.73;;
4432;SDS011;2229;48.708;9.706;2024-03-02T00:04:06;16.10;;;6.20;;
4432;SDS011;2229;48.708;9.706;2024-03-02T00:06:34;13.00;;;6.10;;
4432;SDS011;2229;48.708;9.706;2024-03-02T00:09:03;15.37;;;7.10;;
4432;SDS011;2229;48.708;9.706;2024-03-02T00:11:30;9.67;;;5.30;;
4432;SDS011;2229;48.708;9.706;2024-03-02T00:14:01;15.73;;;6.40;;
4432;SDS011;2229;48.708;9.706;2024-03-02T00:16:30;9.53;;;4.93;;
4432;SDS011;2229;48.708;9.706;2024-03-02T00:19:00;9.23;;;4.67;;
4432;SDS011;2229;48.708;9.706;2024-03-02T00:21:29;14.80;;;4.17;;
4432;SDS011;2229;48.708;9.706;2024-03-02T00:23:57;11.43;;;5.73;;
4432;SDS011;2229;48.708;9.706;2024-03-02T00:26:24;9.90;;;5.63;;
4432;SDS011;2229;48.708;9.706;2024-03-02T00:28:52;11.47;;;5.47;;
4432;SDS011;2229;48.708;9.706;2024-03-02T00:31:22;15.37;;;4.93;;
4432;SDS011;2229;48.708;9.706;2024-03-02T00:33:52;11.67;;;5.53;;
4432;SDS011;2229;48.708;9.706;2024-03-02T00:36:22;10.10;;;4.93;;
4432;SDS011;2229;48.708;9.706;2024-03-02T00:38:51;16.23;;;6.77;;
4432;SDS011;2229;48.708;9.706;2024-03-02T00:41:21;12.67;;;5.13;;
4432;SDS011;2229;48.708;9.706;2024-03-02T00:43:57;10.30;;;4.50;;
4432;SDS011;2229;48.708;9.706;2024-03-02T00:46:25;9.50;;;4.00;;
4432;SDS011;2229;48.708;9.706;2024-03-02T00:48:56;10.03;;;4.87;;
4432;SDS011;2229;48.708;9.706;2024-03-02T00:51:26;8.87;;;4.50;;
4432;SDS011;2229;48.708;9.706;2024-03-02T00:53:54;11.67;;;4.57;;
4432;SDS011;2229;48.708;9.706;2024-03-02T00:56:22;11.10;;;3.83;;
4432;SDS011;2229;48.708;9.706;2024-03-02T00:58:50;9.80;;;4.57;;
4432;SDS011;2229;48.708;9.706;2024-03-02T01:01:17;8.30;;;3.87;;
4432;SDS011;2229;48.708;9.706;2024-03-02T01:03:45;6.00;;;3.10;;
4432;SDS011;2229;48.708;9.706;2024-03-02T01:06:14;13.03;;;5.00;;
4432;SDS011;2229;48.708;9.706;2024-03-02T01:08:41;9.23;;;4.80;;
4432;SDS011;2229;48.708;9.706;2024-03-02T01:11:09;11.77;;;4.27;;
4432;SDS011;2229;48.708;9.706;2024-03-02T01:13:37;16.33;;;5.97;;
4432;SDS011;2229;48.708;9.706;2024-03-02T01:16:04;9.80;;;4.97;;
4432;SDS011;2229;48.708;9.706;2024-03-02T01:18:32;10.73;;;5.37;;
4432;SDS011;2229;48.708;9.706;2024-03-02T01:20:59;9.27;;;3.97;;
4432;SDS011;2229;48.708;9.706;2024-03-02T01:23:28;11.83;;;5.90;;
4432;SDS011;2229;48.708;9.706;2024-03-02T01:25:55;13.73;;;5.60;;
4432;SDS011;2229;48.708;9.706;2024-03-02T01:28:22;8.47;;;3.63;;
4432;SDS011;2229;48.708;9.706;2024-03-02T01:30:49;10.53;;;5.03;;
4432;SDS011;2229;48.708;9.706;2024-03-02T01:33:17;11.67;;;4.80;;
4432;SDS011;2229;48.708;9.706;2024-03-02T01:35:45;10.07;;;3.63;;
4432;SDS011;2229;48.708;9.706;2024-03-02T01:38:12;13.03;;;5.43;;
4432;SDS011;2229;48.708;9.706;2024-03-02T01:40:41;7.53;;;4.00;;
4432;SDS011;2229;48.708;9.706;2024-03-02T01:43:09;9.37;;;4.80;;
4432;SDS011;2229;48.708;9.706;2024-03-02T01:45:37;10.80;;;4.80;;
4432;SDS011;2229;48.708;9.706;2024-03-02T01:48:04;10.80;;;5.10;;
4432;SDS011;2229;48.708;9.706;2024-03-02T01:50:34;10.53;;;4.70;;
4432;SDS011;2229;48.708;9.706;2024-03-02T01:53:01;9.60;;;5.50;;
4432;SDS011;2229;48.708;9.706;2024-03-02T01:55:29;10.40;;;4.40;;
4432;SDS011;2229;48.708;9.706;2024-03-02T01:57:57;9.87;;;4.20;;
4432;SDS011;2229;48.708;9.706;2024-03-02T02:00:25;13.83;;;5.23;;
4432;SDS011;2229;48.708;9.706;2024-03-02T02:02:52;11.80;;;6.00;;
4432;SDS011;2229;48.708;9.706;2024-03-02T02:05:19;11.40;;;5.73;;
4432;SDS011;2229;48.708;9.706;2024-03-02T02:07:47;8.40;;;4.40;;
4432;SDS011;2229;48.708;9.706;2024-03-02T02:10:14;8.73;;;4.30;;
4432;SDS011;2229;48.708;9.706;2024-03-02T02:12:41;9.00;;;4.90;;
4432;SDS011;2229;48.708;9.706;2024-03-02T02:18:00;7.87;;;3.70;;
4432;SDS011;2229;48.708;9.706;2024-03-02T02:20:27;13.50;;;5.20;;
4432;SDS011;2229;48.708;9.706;2024-03-02T02:22:56;9.80;;;4.03;;
4432;SDS011;2229;48.708;9.706;2024-03-02T02:25:24;8.90;;;3.93;;
4432;SDS011;2229;48.708;9.706;2024-03-02T02:27:51;9.07;;;3.50;;
4432;SDS011;2229;48.708;9.706;2024-03-02T02:30:19;15.37;;;6.27;;
4432;SDS011;2229;48.708;9.706;2024-03-02T02:32:48;22.00;;;6.43;;
4432;SDS011;2229;48.708;9.706;2024-03-02T02:35:16;14.90;;;5.87;;
4432;SDS011;2229;48.708;9.706;2024-03-02T02:37:43;15.23;;;6.30;;
4432;SDS011;2229;48.708;9.706;2024-03-02T02:40:13;9.60;;;3.67;;
4432;SDS011;2229;48.708;9.706;2024-03-02T02:42:41;10.23;;;4.57;;
4432;SDS011;2229;48.708;9.706;2024-03-02T02:45:08;18.37;;;6.10;;
4432;SDS011;2229;48.708;9.706;2024-03-02T02:47:36;13.90;;;5.87;;
4432;SDS011;2229;48.708;9.706;2024-03-02T02:50:04;12.43;;;5.80;;
4432;SDS011;2229;48.708;9.706;2024-03-02T02:52:33;9.17;;;5.77;;
4432;SDS011;2229;48.708;9.706;2024-03-02T02:55:03;23.63;;;8.17;;
4432;SDS011;2229;48.708;9.706;2024-03-02T02:57:32;16.57;;;6.03;;
4432;SDS011;2229;48.708;9.706;2024-03-02T03:00:03;13.77;;;5.90;;
4432;SDS011;2229;48.708;9.706;2024-03-02T03:02:36;21.00;;;5.90;;
4432;SDS011;2229;48.708;9.706;2024-03-02T03:05:05;11.50;;;4.83;;
4432;SDS011;2229;48.708;9.706;2024-03-02T03:07:32;12.47;;;6.07;;
4432;SDS011;2229;48.708;9.706;2024-03-02T03:09:59;17.67;;;5.73;;
4432;SDS011;2229;48.708;9.706;2024-03-02T03:12:26;18.70;;;6.33;;
4432;SDS011;2229;48.708;9.706;2024-03-02T03:14:56;13.43;;;6.03;;
4432;SDS011;2229;48.708;9.706;2024-03-02T03:17:23;15.70;;;7.63;;
4432;SDS011;2229;48.708;9.706;2024-03-02T03:19:51;9.60;;;5.37;;
4432;SDS011;2229;48.708;9.706;2024-03-02T03:22:18;11.13;;;5.43;;
4432;SDS011;2229;48.708;9.706;2024-03-02T03:24:45;10.07;;;4.63;;
4432;SDS011;2229;48.708;9.706;2024-03-02T03:27:12;15.60;;;6.93;;
4432;SDS011;2229;48.708;9.706;2024-03-02T03:29:39;9.77;;;4.53;;
4432;SDS011;2229;48.708;9.706;2024-03-02T03:32:08;11.40;;;5.73;;
4432;SDS011;2229;48.708;9.706;2024-03-02T03:34:35;11.53;;;6.30;;
4432;SDS011;2229;48.708;9.706;2024-03-02T03:37:02;13.30;;;6.23;;
4432;SDS011;2229;48.708;9.706;2024-03-02T03:39:30;12.13;;;5.50;;
4432;SDS011;2229;48.708;9.706;2024-03-02T03:41:57;12.17;;;5.90;;
4432;SDS011;2229;48.708;9.706;2024-03-02T03:44:24;12.30;;;5.27;;
4432;SDS011;2229;48.708;9.706;2024-03-02T03:46:51;15.43;;;6.90;;
4432;SDS011;2229;48.708;9.706;2024-03-02T03:49:19;16.80;;;6.80;;
4432;SDS011;2229;48.708;9.706;2024-03-02T03:51:47;10.10;;;4.93;;
4432;SDS011;2229;48.708;9.706;2024-03-02T03:54:14;14.60;;;6.33;;
4432;SDS011;2229;48.708;9.706;2024-03-02T03:56:41;11.57;;;5.13;;
4432;SDS011;2229;48.708;9.706;2024-03-02T03:59:09;19.53;;;5.20;;
4432;SDS011;2229;48.708;9.706;2024-03-02T04:01:37;10.70;;;4.43;;
4432;SDS011;2229;48.708;9.706;2024-03-02T04:04:04;13.10;;;5.23;;
4432;SDS011;2229;48.708;9.706;2024-03-02T04:06:32;11.50;;;4.03;;
4432;SDS011;2229;48.708;9.706;2024-03-02T04:08:59;11.23;;;5.23;;
4432;SDS011;2229;48.708;9.706;2024-03-02T04:11:26;9.80;;;4.40;;
4432;SDS011;2229;48.708;9.706;2024-03-02T04:13:53;13.70;;;5.77;;
4432;SDS011;2229;48.708;9.706;2024-03-02T04:16:20;9.03;;;4.07;;
4432;SDS011;2229;48.708;9.706;2024-03-02T04:18:48;8.00;;;3.80;;
4432;SDS011;2229;48.708;9.706;2024-03-02T04:21:17;10.67;;;5.10;;
4432;SDS011;2229;48.708;9.706;2024-03-02T04:23:45;10.23;;;4.47;;
4432;SDS011;2229;48.708;9.706;2024-03-02T04:26:13;8.37;;;3.07;;
4432;SDS011;2229;48.708;9.706;2024-03-02T04:28:45;9.03;;;4.80;;
4432;SDS011;2229;48.708;9.706;2024-03-02T04:31:12;4.80;;;3.30;;
4432;SDS011;2229;48.708;9.706;2024-03-02T04:33:41;8.30;;;4.30;;
4432;SDS011;2229;48.708;9.706;2024-03-02T04:36:08;10.30;;;4.43;;
4432;SDS011;2229;48.708;9.706;2024-03-02T04:38:35;11.77;;;4.30;;
4432;SDS011;2229;48.708;9.706;2024-03-02T04:41:04;9.30;;;3.57;;
4432;SDS011;2229;48.708;9.706;2024-03-02T04:43:32;9.07;;;4.30;;
4432;SDS011;2229;48.708;9.706;2024-03-02T04:45:59;9.23;;;4.20;;
4432;SDS011;2229;48.708;9.706;2024-03-02T04:48:27;13.27;;;4.30;;
4432;SDS011;2229;48.708;9.706;2024-03-02T04:50:54;12.10;;;4.03;;
4432;SDS011;2229;48.708;9.706;2024-03-02T04:53:21;10.73;;;5.30;;
4432;SDS011;2229;48.708;9.706;2024-03-02T04:55:49;8.10;;;3.60;;
4432;SDS011;2229;48.708;9.706;2024-03-02T04:58:47;13.33;;;5.93;;
4432;SDS011;2229;48.708;9.706;2024-03-02T05:01:14;15.43;;;6.73;;
4432;SDS011;2229;48.708;9.706;2024-03-02T05:03:42;12.70;;;5.37;;
4432;SDS011;2229;48.708;9.706;2024-03-02T05:06:10;11.47;;;4.33;;
4432;SDS011;2229;48.708;9.706;2024-03-02T05:08:38;14.10;;;4.50;;
4432;SDS011;2229;48.708;9.706;2024-03-02T05:11:05;10.27;;;4.27;;
4432;SDS011;2229;48.708;9.706;2024-03-02T05:13:48;11.10;;;3.73;;
4432;SDS011;2229;48.708;9.706;2024-03-02T05:16:15;9.83;;;4.47;;
4432;SDS011;2229;48.708;9.706;2024-03-02T05:18:41;14.20;;;5.40;;
4432;SDS011;2229;48.708;9.706;2024-03-02T05:21:08;11.73;;;5.90;;
4432;SDS011;2229;48.708;9.706;2024-03-02T05:23:36;14.33;;;6.27;;
4432;SDS011;2229;48.708;9.706;2024-03-02T05:26:03;11.80;;;4.63;;
4432;SDS011;2229;48.708;9.706;2024-03-02T05:28:31;10.73;;;4.33;;
4432;SDS011;2229;48.708;9.706;2024-03-02T05:30:59;9.30;;;4.90;;
4432;SDS011;2229;48.708;9.706;2024-03-02T05:33:27;9.90;;;4.87;;
4432;SDS011;2229;48.708;9.706;2024-03-02T05:35:56;11.57;;;4.03;;
4432;SDS011;2229;48.708;9.706;2024-03-02T05:38:24;10.50;;;3.43;;
4432;SDS011;2229;48.708;9.706;2024-03-02T05:40:51;8.00;;;4.20;;
4432;SDS011;2229;48.708;9.706;2024-03-02T05:43:18;8.70;;;4.37;;
4432;SDS011;2229;48.708;9.706;2024-03-02T05:45:46;7.60;;;4.03;;
4432;SDS011;2229;48.708;9.706;2024-03-02T05:48:14;12.83;;;4.00;;
4432;SDS011;2229;48.708;9.706;2024-03-02T05:50:42;12.93;;;5.30;;
4432;SDS011;2229;48.708;9.706;2024-03-02T05:53:09;11.53;;;3.90;;
4432;SDS011;2229;48.708;9.706;2024-03-02T05:55:37;12.40;;;5.97;;
4432;SDS011;2229;48.708;9.706;2024-03-02T05:58:05;12.47;;;5.53;;
4432;SDS011;2229;48.708;9.706;2024-03-02T06:00:48;15.70;;;5.20;;
4432;SDS011;2229;48.708;9.706;2024-03-02T06:03:16;14.37;;;5.63;;
4432;SDS011;2229;48.708;9.706;2024-03-02T06:05:43;9.87;;;4.10;;
4432;SDS011;2229;48.708;9.706;2024-03-02T06:08:15;8.70;;;6.17;;
4432;SDS011;2229;48.708;9.706;2024-03-02T06:10:43;12.07;;;5.10;;
4432;SDS011;2229;48.708;9.706;2024-03-02T06:13:10;11.40;;;5.00;;
4432;SDS011;2229;48.708;9.706;2024-03-02T06:15:37;13.03;;;6.83;;
4432;SDS011;2229;48.708;9.706;2024-03-02T06:18:04;7.93;;;4.07;;
4432;SDS011;2229;48.708;9.706;2024-03-02T06:20:34;11.00;;;4.63;;
4432;SDS011;2229;48.708;9.706;2024-03-02T06:23:02;9.60;;;4.90;;
4432;SDS011;2229;48.708;9.706;2024-03-02T06:25:30;8.53;;;3.53;;
4432;SDS011;2229;48.708;9.706;2024-03-02T06:27:57;10.17;;;5.10;;
4432;SDS011;2229;48.708;9.706;2024-03-02T06:30:26;7.70;;;3.70;;
4432;SDS011;2229;48.708;9.706;2024-03-02T06:32:53;10.90;;;4.57;;
4432;SDS011;2229;48.708;9.706;2024-03-02T06:35:20;11.30;;;4.30;;
4432;SDS011;2229;48.708;9.706;2024-03-02T06:37:49;9.77;;;4.10;;
4432;SDS011;2229;48.708;9.706;2024-03-02T06:40:16;12.10;;;6.00;;
4432;SDS011;2229;48.708;9.706;2024-03-02T06:42:43;10.70;;;4.50;;
4432;SDS011;2229;48.708;9.706;2024-03-02T06:45:10;8.83;;;4.40;;
4432;SDS011;2229;48.708;9.706;2024-03-02T06:47:37;11.27;;;5.27;;
4432;SDS011;2229;48.708;9.706;2024-03-02T06:50:05;10.13;;;4.40;;
4432;SDS011;2229;48.708;9.706;2024-03-02T06:52:33;11.20;;;4.53;;
4432;SDS011;2229;48.708;9.706;2024-03-02T06:55:03;12.37;;;4.33;;
4432;SDS011;2229;48.708;9.706;2024-03-02T06:57:31;8.20;;;4.87;;
4432;SDS011;2229;48.708;9.706;2024-03-02T06:59:58;10.53;;;4.90;;
4432;SDS011;2229;48.708;9.706;2024-03-02T07:02:25;7.20;;;3.67;;
4432;SDS011;2229;48.708;9.706;2024-03-02T07:04:53;16.53;;;5.13;;
4432;SDS011;2229;48.708;9.706;2024-03-02T07:07:20;13.40;;;4.43;;
4432;SDS011;2229;48.708;9.706;2024-03-02T07:09:47;9.63;;;5.80;;
4432;SDS011;2229;48.708;9.706;2024-03-02T07:12:16;9.03;;;3.93;;
4432;SDS011;2229;48.708;9.706;2024-03-02T07:14:43;9.13;;;4.90;;
4432;SDS011;2229;48.708;9.706;2024-03-02T07:17:36;11.00;;;3.80;;
4432;SDS011;2229;48.708;9.706;2024-03-02T07:20:04;10.27;;;4.37;;
4432;SDS011;2229;48.708;9.706;2024-03-02T07:22:32;9.40;;;4.47;;
4432;SDS011;2229;48.708;9.706;2024-03-02T07:25:00;9.60;;;4.77;;
4432;SDS011;2229;48.708;9.706;2024-03-02T07:27:30;11.10;;;4.60;;
4432;SDS011;2229;48.708;9.706;2024-03-02T07:29:57;10.07;;;5.10;;
4432;SDS011;2229;48.708;9.706;2024-03-02T07:32:24;11.17;;;5.63;;
4432;SDS011;2229;48.708;9.706;2024-03-02T07:34:51;13.53;;;4.30;;
4432;SDS011;2229;48.708;9.706;2024-03-02T07:37:19;8.80;;;3.70;;
4432;SDS011;2229;48.708;9.706;2024-03-02T07:39:46;8.30;;;5.27;;
4432;SDS011;2229;48.708;9.706;2024-03-02T07:42:13;8.03;;;3.50;;
4432;SDS011;2229;48.708;9.706;2024-03-02T07:44:41;10.53;;;4.10;;
4432;SDS011;2229;48.708;9.706;2024-03-02T07:47:10;8.57;;;4.23;;
4432;SDS011;2229;48.708;9.706;2024-03-02T07:49:37;8.40;;;3.60;;
4432;SDS011;2229;48.708;9.706;2024-03-02T07:52:04;8.50;;;3.50;;
4432;SDS011;2229;48.708;9.706;2024-03-02T07:54:32;7.87;;;4.00;;
4432;SDS011;2229;48.708;9.706;2024-03-02T07:57:00;11.57;;;3.50;;
4432;SDS011;2229;48.708;9.706;2024-03-02T07:59:28;5.97;;;3.10;;
4432;SDS011;2229;48.708;9.706;2024-03-02T08:01:56;8.50;;;3.50;;
4432;SDS011;2229;48.708;9.706;2024-03-02T08:04:26;9.27;;;4.40;;
4432;SDS011;2229;48.708;9.706;2024-03-02T08:06:53;8.20;;;3.80;;
4432;SDS011;2229;48.708;9.706;2024-03-02T08:09:21;7.53;;;3.37;;
4432;SDS011;2229;48.708;9.706;2024-03-02T08:11:49;6.40;;;3.87;;
4432;SDS011;2229;48.708;9.706;2024-03-02T08:14:17;5.60;;;3.07;;
4432;SDS011;2229;48.708;9.706;2024-03-02T08:16:47;6.13;;;3.70;;
4432;SDS011;2229;48.708;9.706;2024-03-02T08:19:16;6.77;;;3.83;;
4432;SDS011;2229;48.708;9.706;2024-03-02T08:21:44;8.63;;;4.33;;
4432;SDS011;2229;48.708;9.706;2024-03-02T08:24:11;9.83;;;3.80;;
4432;SDS011;2229;48.708;9.706;2024-03-02T08:26:38;6.80;;;3.43;;
4432;SDS011;2229;48.708;9.706;2024-03-02T08:29:06;13.20;;;3.93;;
4432;SDS011;2229;48.708;9.706;2024-03-02T08:31:33;8.50;;;3.97;;
4432;SDS011;2229;48.708;9.706;2024-03-02T08:34:00;7.07;;;3.83;;
4432;SDS011;2229;48.708;9.706;2024-03-02T08:36:40;5.40;;;3.33;;
4432;SDS011;2229;48.708;9.706;2024-03-02T08:39:07;6.23;;;4.00;;
4432;SDS011;2229;48.708;9.706;2024-03-02T08:41:40;6.60;;;3.10;;
4432;SDS011;2229;48.708;9.706;2024-03-02T08:44:08;8.00;;;3.80;;
4432;SDS011;2229;48.708;9.706;2024-03-02T08:46:36;6.17;;;3.13;;
4432;SDS011;2229;48.708;9.706;2024-03-02T08:49:05;7.90;;;3.77;;
4432;SDS011;2229;48.708;9.706;2024-03-02T08:51:34;9.97;;;4.27;;
4432;SDS011;2229;48.708;9.706;2024-03-02T08:54:01;5.90;;;3.60;;
4432;SDS011;2229;48.708;9.706;2024-03-02T08:56:29;7.93;;;3.70;;
4432;SDS011;2229;48.708;9.706;2024-03-02T08:58:56;5.07;;;3.00;;
4432;SDS011;2229;48.708;9.706;2024-03-02T09:01:24;7.97;;;3.40;;
4432;SDS011;2229;48.708;9.706;2024-03-02T09:03:51;7.93;;;3.43;;
4432;SDS011;2229;48.708;9.706;2024-03-02T09:06:18;6.23;;;3.40;;
4432;SDS011;2229;48.708;9.706;2024-03-02T09:08:48;7.20;;;3.70;;
4432;SDS011;2229;48.708;9.706;2024-03-02T09:11:17;5.27;;;2.90;;
4432;SDS011;2229;48.708;9.706;2024-03-02T09:17:19;5.43;;;2.80;;
4432;SDS011;2229;48.708;9.706;2024-03-02T09:19:46;4.80;;;3.07;;
4432;SDS011;2229;48.708;9.706;2024-03-02T09:22:13;3.60;;;2.30;;
4432;SDS011;2229;48.708;9.706;2024-03-02T09:24:42;5.70;;;2.60;;
4432;SDS011;2229;48.708;9.706;2024-03-02T09:27:09;5.57;;;2.47;;
4432;SDS011;2229;48.708;9.706;2024-03-02T09:29:37;4.80;;;2.60;;
4432;SDS011;2229;48.708;9.706;2024-03-02T09:32:06;6.43;;;3.20;;
4432;SDS011;2229;48.708;9.706;2024-03-02T09:34:34;4.80;;;2.73;;
4432;SDS011;2229;48.708;9.706;2024-03-02T09:37:01;5.80;;;2.83;;
4432;SDS011;2229;48.708;9.706;2024-03-02T09:39:29;3.57;;;1.90;;
4432;SDS011;2229;48.708;9.706;2024-03-02T09:41:58;7.43;;;1.90;;
4432;SDS011;2229;48.708;9.706;2024-03-02T09:44:25;5.00;;;2.50;;
4432;SDS011;2229;48.708;9.706;2024-03-02T09:46:52;3.70;;;2.23;;
4432;SDS011;2229;48.708;9.706;2024-03-02T09:49:20;5.27;;;2.20;;
4432;SDS011;2229;48.708;9.706;2024-03-02T09:51:48;3.30;;;2.13;;
4432;SDS011;2229;48.708;9.706;2024-03-02T09:54:16;5.33;;;2.47;;
4432;SDS011;2229;48.708;9.706;2024-03-02T09:56:44;3.63;;;2.10;;
4432;SDS011;2229;48.708;9.706;2024-03-02T09:59:12;3.20;;;2.40;;
4432;SDS011;2229;48.708;9.706;2024-03-02T10:01:55;5.13;;;2.53;;
4432;SDS011;2229;48.708;9.706;2024-03-02T10:04:25;4.87;;;2.53;;
4432;SDS011;2229;48.708;9.706;2024-03-02T10:07:04;4.83;;;2.70;;
4432;SDS011;2229;48.708;9.706;2024-03-02T10:09:39;3.30;;;1.97;;
4432;SDS011;2229;48.708;9.706;2024-03-02T10:12:08;5.17;;;2.63;;
4432;SDS011;2229;48.708;9.706;2024-03-02T10:14:38;4.83;;;2.47;;
4432;SDS011;2229;48.708;9.706;2024-03-02T10:17:06;3.40;;;1.83;;
4432;SDS011;2229;48.708;9.706;2024-03-02T10:19:34;3.87;;;2.23;;
4432;SDS011;2229;48.708;9.706;2024-03-02T10:22:02;4.00;;;1.90;;
4432;SDS011;2229;48.708;9.706;2024-03-02T10:24:34;3.17;;;1.77;;
4432;SDS011;2229;48.708;9.706;2024-03-02T10:27:07;3.37;;;2.27;;
4432;SDS011;2229;48.708;9.706;2024-03-02T10:29:38;2.40;;;1.70;;
4432;SDS011;2229;48.708;9.706;2024-03-02T10:32:09;3.97;;;2.50;;
4432;SDS011;2229;48.708;9.706;2024-03-02T10:34:37;4.37;;;2.50;;
4432;SDS011;2229;48.708;9.706;2024-03-02T10:37:06;5.60;;;2.30;;
4432;SDS011;2229;48.708;9.706;2024-03-02T10:39:34;5.60;;;2.23;;
4432;SDS011;2229;48.708;9.706;2024-03-02T10:42:02;3.80;;;2.03;;
4432;SDS011;2229;48.708;9.706;2024-03-02T10:44:31;3.90;;;2.60;;
4432;SDS011;2229;48.708;9.706;2024-03-02T10:47:01;4.63;;;2.60;;
4432;SDS011;2229;48.708;9.706;2024-03-02T10:49:29;6.60;;;3.07;;
4432;SDS011;2229;48.708;9.706;2024-03-02T10:51:57;4.47;;;2.07;;
4432;SDS011;2229;48.708;9.706;2024-03-02T10:54:25;3.13;;;1.70;;
4432;SDS011;2229;48.708;9.706;2024-03-02T10:56:55;4.67;;;2.23;;
4432;SDS011;2229;48.708;9.706;2024-03-02T10:59:26;5.10;;;2.70;;
4432;SDS011;2229;48.708;9.706;2024-03-02T11:01:56;5.07;;;2.60;;
4432;SDS011;2229;48.708;9.706;2024-03-02T11:04:28;4.87;;;2.93;;
4432;SDS011;2229;48.708;9.706;2024-03-02T11:06:58;3.57;;;2.07;;
4432;SDS011;2229;48.708;9.706;2024-03-02T11:09:27;7.43;;;2.50;;
4432;SDS011;2229;48.708;9.706;2024-03-02T11:11:59;9.93;;;3.87;;
4432;SDS011;2229;48.708;9.706;2024-03-02T11:14:30;7.82;;;3.90;;
4432;SDS011;2229;48.708;9.706;2024-03-02T11:16:59;6.50;;;3.33;;
4432;SDS011;2229;48.708;9.706;2024-03-02T11:19:32;5.23;;;2.93;;
4432;SDS011;2229;48.708;9.706;2024-03-02T11:22:02;4.00;;;2.20;;
4432;SDS011;2229;48.708;9.706;2024-03-02T11:24:30;3.57;;;2.47;;
4432;SDS011;2229;48.708;9.706;2024-03-02T11:27:03;3.83;;;2.30;;
4432;SDS011;2229;48.708;9.706;2024-03-02T11:29:43;3.73;;;2.03;;
4432;SDS011;2229;48.708;9.706;2024-03-02T11:32:15;2.33;;;1.63;;
4432;SDS011;2229;48.708;9.706;2024-03-02T11:34:46;2.90;;;1.67;;
4432;SDS011;2229;48.708;9.706;2024-03-02T11:37:15;2.90;;;1.43;;
4432;SDS011;2229;48.708;9.706;2024-03-02T11:39:43;4.60;;;2.13;;
4432;SDS011;2229;48.708;9.706;2024-03-02T11:42:11;3.37;;;1.50;;
4432;SDS011;2229;48.708;9.706;2024-03-02T11:44:41;3.30;;;1.37;;
4432;SDS011;2229;48.708;9.706;2024-03-02T11:47:10;3.17;;;1.77;;
4432;SDS011;2229;48.708;9.706;2024-03-02T11:49:41;4.17;;;1.57;;
4432;SDS011;2229;48.708;9.706;2024-03-02T11:52:12;3.70;;;2.17;;
4432;SDS011;2229;48.708;9.706;2024-03-02T11:54:40;2.90;;;1.23;;
4432;SDS011;2229;48.708;9.706;2024-03-02T11:57:12;3.50;;;2.20;;
4432;SDS011;2229;48.708;9.706;2024-03-02T11:59:40;2.93;;;1.40;;
4432;SDS011;2229;48.708;9.706;2024-03-02T12:02:12;3.80;;;1.80;;
4432;SDS011;2229;48.708;9.706;2024-03-02T12:04:42;5.53;;;1.77;;
4432;SDS011;2229;48.708;9.706;2024-03-02T12:07:11;4.10;;;1.87;;
4432;SDS011;2229;48.708;9.706;2024-03-02T12:09:38;2.47;;;1.20;;
4432;SDS011;2229;48.708;9.706;2024-03-02T12:12:06;3.75;;;1.90;;
4432;SDS011;2229;48.708;9.706;2024-03-02T12:14:35;3.40;;;1.70;;
4432;SDS011;2229;48.708;9.706;2024-03-02T12:17:04;2.53;;;1.20;;
4432;SDS011;2229;48.708;9.706;2024-03-02T12:19:32;1.47;;;0.83;;
4432;SDS011;2229;48.708;9.706;2024-03-02T12:22:00;3.83;;;1.93;;
4432;SDS011;2229;48.708;9.706;2024-03-02T12:24:29;3.17;;;1.10;;
4432;SDS011;2229;48.708;9.706;2024-03-02T12:26:57;2.90;;;0.97;;
4432;SDS011;2229;48.708;9.706;2024-03-02T12:29:25;1.90;;;0.93;;
4432;SDS011;2229;48.708;9.706;2024-03-02T12:31:53;4.20;;;1.13;;
4432;SDS011;2229;48.708;9.706;2024-03-02T12:34:20;2.87;;;0.80;;
4432;SDS011;2229;48.708;9.706;2024-03-02T12:36:48;2.40;;;1.23;;
4432;SDS011;2229;48.708;9.706;2024-03-02T12:39:18;2.60;;;1.23;;
4432;SDS011;2229;48.708;9.706;2024-03-02T12:41:47;3.37;;;1.23;;
4432;SDS011;2229;48.708;9.706;2024-03-02T12:44:16;2.47;;;1.50;;
4432;SDS011;2229;48.708;9.706;2024-03-02T12:46:43;3.30;;;1.80;;
4432;SDS011;2229;48.708;9.706;2024-03-02T12:49:12;3.93;;;1.50;;
4432;SDS011;2229;48.708;9.706;2024-03-02T12:51:41;2.77;;;1.20;;
4432;SDS011;2229;48.708;9.706;2024-03-02T12:54:13;2.20;;;1.00;;
4432;SDS011;2229;48.708;9.706;2024-03-02T12:56:41;4.63;;;2.00;;
4432;SDS011;2229;48.708;9.706;2024-03-02T12:59:18;2.93;;;1.20;;
4432;SDS011;2229;48.708;9.706;2024-03-02T13:01:51;2.10;;;1.33;;
4432;SDS011;2229;48.708;9.706;2024-03-02T13:04:21;2.23;;;1.20;;
4432;SDS011;2229;48.708;9.706;2024-03-02T13:06:50;2.60;;;1.33;;
4432;SDS011;2229;48.708;9.706;2024-03-02T13:09:18;3.50;;;1.40;;
4432;SDS011;2229;48.708;9.706;2024-03-02T13:11:46;2.17;;;0.90;;
4432;SDS011;2229;48.708;9.706;2024-03-02T13:14:13;3.73;;;1.10;;
4432;SDS011;2229;48.708;9.706;2024-03-02T13:16:42;3.13;;;1.17;;
4432;SDS011;2229;48.708;9.706;2024-03-02T13:19:12;2.00;;;0.83;;
4432;SDS011;2229;48.708;9.706;2024-03-02T13:21:39;3.13;;;1.00;;
4432;SDS011;2229;48.708;9.706;2024-03-02T13:24:07;2.70;;;1.30;;
4432;SDS011;2229;48.708;9.706;2024-03-02T13:26:34;2.07;;;1.20;;
4432;SDS011;2229;48.708;9.706;2024-03-02T13:29:01;2.60;;;0.90;;
4432;SDS011;2229;48.708;9.706;2024-03-02T13:31:28;3.10;;;1.30;;
4432;SDS011;2229;48.708;9.706;2024-03-02T13:33:57;3.00;;;1.17;;
4432;SDS011;2229;48.708;9.706;2024-03-02T13:36:24;1.73;;;1.10;;
4432;SDS011;2229;48.708;9.706;2024-03-02T13:38:51;1.50;;;0.80;;
4432;SDS011;2229;48.708;9.706;2024-03-02T13:41:19;5.03;;;0.90;;
4432;SDS011;2229;48.708;9.706;2024-03-02T13:43:47;1.70;;;0.90;;
4432;SDS011;2229;48.708;9.706;2024-03-02T13:46:14;2.80;;;1.07;;
4432;SDS011;2229;48.708;9.706;2024-03-02T13:48:41;4.97;;;1.00;;
4432;SDS011;2229;48.708;9.706;2024-03-02T13:51:09;2.13;;;1.00;;
4432;SDS011;2229;48.708;9.706;2024-03-02T13:53:37;1.50;;;0.60;;
4432;SDS011;2229;48.708;9.706;2024-03-02T13:56:04;3.13;;;1.13;;
4432;SDS011;2229;48.708;9.706;2024-03-02T13:58:32;2.27;;;0.87;;
4432;SDS011;2229;48.708;9.706;2024-03-02T14:00:59;2.37;;;1.47;;
4432;SDS011;2229;48.708;9.706;2024-03-02T14:03:30;3.60;;;1.43;;
4432;SDS011;2229;48.708;9.706;2024-03-02T14:05:57;3.33;;;2.47;;
4432;SDS011;2229;48.708;9.706;2024-03-02T14:08:26;1.83;;;1.13;;
4432;SDS011;2229;48.708;9.706;2024-03-02T14:10:53;2.40;;;1.40;;
4432;SDS011;2229;48.708;9.706;2024-03-02T14:13:20;3.67;;;1.43;;
4432;SDS011;2229;48.708;9.706;2024-03-02T14:15:48;3.67;;;1.80;;
4432;SDS011;2229;48.708;9.706;2024-03-02T14:18:15;1.90;;;1.17;;
4432;SDS011;2229;48.708;9.706;2024-03-02T14:20:42;2.60;;;1.53;;
4432;SDS011;2229;48.708;9.706;2024-03-02T14:23:10;2.93;;;1.80;;
4432;SDS011;2229;48.708;9.706;2024-03-02T14:25:38;3.10;;;1.80;;
4432;SDS011;2229;48.708;9.706;2024-03-02T14:28:05;2.77;;;1.20;;
4432;SDS011;2229;48.708;9.706;2024-03-02T14:30:31;3.10;;;1.40;;
4432;SDS011;2229;48.708;9.706;2024-03-02T14:33:00;2.17;;;1.20;;
4432;SDS011;2229;48.708;9.706;2024-03-02T14:35:29;3.00;;;1.20;;
4432;SDS011;2229;48.708;9.706;2024-03-02T14:37:56;2.77;;;1.20;;
4432;SDS011;2229;48.708;9.706;2024-03-02T14:40:23;3.83;;;1.90;;
4432;SDS011;2229;48.708;9.706;2024-03-02T14:42:54;3.33;;;1.27;;
4432;SDS011;2229;48.708;9.706;2024-03-02T14:45:21;3.50;;;2.10;;
4432;SDS011;2229;48.708;9.706;2024-03-02T14:47:49;2.00;;;1.50;;
4432;SDS011;2229;48.708;9.706;2024-03-02T14:50:18;3.50;;;2.43;;
4432;SDS011;2229;48.708;9.706;2024-03-02T14:52:45;7.30;;;2.67;;
4432;SDS011;2229;48.708;9.706;2024-03-02T14:55:17;4.00;;;2.63;;
4432;SDS011;2229;48.708;9.706;2024-03-02T14:57:45;5.80;;;2.43;;
4432;SDS011;2229;48.708;9.706;2024-03-02T15:00:13;3.77;;;2.30;;
4432;SDS011;2229;48.708;9.706;2024-03-02T15:02:41;6.87;;;2.80;;
4432;SDS011;2229;48.708;9.706;2024-03-02T15:05:08;6.73;;;2.73;;
4432;SDS011;2229;48.708;9.706;2024-03-02T15:07:36;3.70;;;1.73;;
4432;SDS011;2229;48.708;9.706;2024-03-02T15:10:06;3.77;;;2.40;;
4432;SDS011;2229;48.708;9.706;2024-03-02T15:12:33;4.07;;;2.07;;
4432;SDS011;2229;48.708;9.706;2024-03-02T15:15:01;4.60;;;2.27;;
4432;SDS011;2229;48.708;9.706;2024-03-02T15:17:30;2.80;;;2.00;;
4432;SDS011;2229;48.708;9.706;2024-03-02T15:19:57;3.93;;;2.10;;
4432;SDS011;2229;48.708;9.706;2024-03-02T15:22:25;4.90;;;2.50;;
4432;SDS011;2229;48.708;9.706;2024-03-02T15:24:52;5.73;;;2.80;;